sensor_id;sensor_type;location;lat;lon;timestamp;temperature;humidity
11762;DHT22;5938;47.098;15.474;2023-09-30T00:00:10;10.40;99.90
11762;DHT22;5938;47.098;15.474;2023-09-30T00:04:14;10.40;99.90
11762;DHT22;5938;47.098;15.474;2023-09-30T00:08:17;10.40;99.90
11762;DHT22;5938;47.098;15.474;2023-09-30T00:12:22;10.40;99.90
11762;DHT22;5938;47.098;15.474;2023-09-30T00:16:25;10.40;99.90
11762;DHT22;5938;47.098;15.474;2023-09-30T00:20:29;10.40;99.90
11762;DHT22;5938;47.098;15.474;2023-09-30T00:24:33;10.30;99.90
11762;DHT22;5938;47.098;15.474;2023-09-30T00:28:38;10.30;99.90
11762;DHT22;5938;47.098;15.474;2023-09-30T00:32:42;10.30;99.90
11762;DHT22;5938;47.098;15.474;2023-09-30T00:36:45;10.10;99.90
11762;DHT22;5938;47.098;15.474;2023-09-30T00:40:49;10.20;99.90
11762;DHT22;5938;47.098;15.474;2023-09-30T00:44:54;10.10;99.90
11762;DHT22;5938;47.098;15.474;2023-09-30T00:48:59;10.10;99.90
11762;DHT22;5938;47.098;15.474;2023-09-30T00:53:02;10.10;99.90
11762;DHT22;5938;47.098;15.474;2023-09-30T00:57:06;10.10;99.90
11762;DHT22;5938;47.098;15.474;2023-09-30T01:01:11;10.10;99.90
11762;DHT22;5938;47.098;15.474;2023-09-30T01:05:15;10.10;99.90
11762;DHT22;5938;47.098;15.474;2023-09-30T01:09:18;10.00;99.90
11762;DHT22;5938;47.098;15.474;2023-09-30T01:13:22;10.00;99.90
11762;DHT22;5938;47.098;15.474;2023-09-30T01:17:27;10.00;99.90
11762;DHT22;5938;47.098;15.474;2023-09-30T01:21:35;9.90;99.90
11762;DHT22;5938;47.098;15.474;2023-09-30T01:25:38;9.90;99.90
11762;DHT22;5938;47.098;15.474;2023-09-30T01:29:42;9.90;99.90
11762;DHT22;5938;47.098;15.474;2023-09-30T01:33:45;9.90;99.90
11762;DHT22;5938;47.098;15.474;2023-09-30T01:37:50;9.90;99.90
11762;DHT22;5938;47.098;15.474;2023-09-30T01:41:53;9.90;99.90
11762;DHT22;5938;47.098;15.474;2023-09-30T01:45:57;9.90;99.90
11762;DHT22;5938;47.098;15.474;2023-09-30T01:50:00;9.90;99.90
11762;DHT22;5938;47.098;15.474;2023-09-30T01:54:05;10.00;99.90
11762;DHT22;5938;47.098;15.474;2023-09-30T01:58:09;10.00;99.90
11762;DHT22;5938;47.098;15.474;2023-09-30T02:02:13;10.00;99.90
11762;DHT22;5938;47.098;15.474;2023-09-30T02:06:17;10.10;99.90
11762;DHT22;5938;47.098;15.474;2023-09-30T02:10:22;10.10;99.90
11762;DHT22;5938;47.098;15.474;2023-09-30T02:14:25;10.10;99.90
11762;DHT22;5938;47.098;15.474;2023-09-30T02:18:29;10.20;99.90
11762;DHT22;5938;47.098;15.474;2023-09-30T02:22:34;10.20;99.90
11762;DHT22;5938;47.098;15.474;2023-09-30T02:26:39;10.20;99.90
11762;DHT22;5938;47.098;15.474;2023-09-30T02:30:42;10.10;99.90
11762;DHT22;5938;47.098;15.474;2023-09-30T02:34:45;10.20;99.90
11762;DHT22;5938;47.098;15.474;2023-09-30T02:38:49;10.20;99.90
11762;DHT22;5938;47.098;15.474;2023-09-30T02:42:55;10.30;99.90
11762;DHT22;5938;47.098;15.474;2023-09-30T02:46:58;10.40;99.90
11762;DHT22;5938;47.098;15.474;2023-09-30T02:51:02;10.40;99.90
11762;DHT22;5938;47.098;15.474;2023-09-30T02:55:07;10.40;99.90
11762;DHT22;5938;47.098;15.474;2023-09-30T02:59:13;10.50;99.90
11762;DHT22;5938;47.098;15.474;2023-09-30T03:03:17;10.50;99.90
11762;DHT22;5938;47.098;15.474;2023-09-30T03:07:21;10.70;99.90
11762;DHT22;5938;47.098;15.474;2023-09-30T03:11:24;10.70;99.90
11762;DHT22;5938;47.098;15.474;2023-09-30T03:15:31;10.80;99.90
11762;DHT22;5938;47.098;15.474;2023-09-30T03:19:35;10.80;99.90
11762;DHT22;5938;47.098;15.474;2023-09-30T03:23:39;10.90;99.90
11762;DHT22;5938;47.098;15.474;2023-09-30T03:27:43;10.80;99.90
11762;DHT22;5938;47.098;15.474;2023-09-30T03:31:49;10.90;99.90
11762;DHT22;5938;47.098;15.474;2023-09-30T03:35:53;10.90;99.90
11762;DHT22;5938;47.098;15.474;2023-09-30T03:39:56;10.90;99.90
11762;DHT22;5938;47.098;15.474;2023-09-30T03:44:00;10.80;99.90
11762;DHT22;5938;47.098;15.474;2023-09-30T03:48:06;10.90;99.90
11762;DHT22;5938;47.098;15.474;2023-09-30T03:52:11;11.00;99.90
11762;DHT22;5938;47.098;15.474;2023-09-30T03:56:17;11.10;99.90
11762;DHT22;5938;47.098;15.474;2023-09-30T04:00:20;11.10;99.90
11762;DHT22;5938;47.098;15.474;2023-09-30T04:04:27;11.10;99.90
11762;DHT22;5938;47.098;15.474;2023-09-30T04:08:38;11.10;99.90
11762;DHT22;5938;47.098;15.474;2023-09-30T04:12:43;11.10;99.90
11762;DHT22;5938;47.098;15.474;2023-09-30T04:16:48;11.10;99.90
11762;DHT22;5938;47.098;15.474;2023-09-30T04:20:57;11.20;99.90
11762;DHT22;5938;47.098;15.474;2023-09-30T04:25:03;11.30;99.90
11762;DHT22;5938;47.098;15.474;2023-09-30T04:29:12;11.40;99.90
11762;DHT22;5938;47.098;15.474;2023-09-30T04:33:19;11.50;99.90
11762;DHT22;5938;47.098;15.474;2023-09-30T04:37:32;11.60;99.90
11762;DHT22;5938;47.098;15.474;2023-09-30T04:41:35;11.60;99.90
11762;DHT22;5938;47.098;15.474;2023-09-30T04:45:39;11.80;99.90
11762;DHT22;5938;47.098;15.474;2023-09-30T04:49:42;11.80;99.90
11762;DHT22;5938;47.098;15.474;2023-09-30T04:53:47;11.80;99.90
11762;DHT22;5938;47.098;15.474;2023-09-30T04:57:58;11.80;99.90
11762;DHT22;5938;47.098;15.474;2023-09-30T05:02:04;11.90;99.90
11762;DHT22;5938;47.098;15.474;2023-09-30T05:06:09;12.00;99.90
11762;DHT22;5938;47.098;15.474;2023-09-30T05:10:22;12.10;99.90
11762;DHT22;5938;47.098;15.474;2023-09-30T05:14:26;12.10;99.90
11762;DHT22;5938;47.098;15.474;2023-09-30T05:18:31;12.10;99.90
11762;DHT22;5938;47.098;15.474;2023-09-30T05:22:34;12.20;99.90
11762;DHT22;5938;47.098;15.474;2023-09-30T05:26:40;12.30;99.90
11762;DHT22;5938;47.098;15.474;2023-09-30T05:30:43;12.40;99.90
11762;DHT22;5938;47.098;15.474;2023-09-30T05:34:49;12.40;99.90
11762;DHT22;5938;47.098;15.474;2023-09-30T05:38:55;12.50;99.90
11762;DHT22;5938;47.098;15.474;2023-09-30T05:43:03;12.50;99.90
11762;DHT22;5938;47.098;15.474;2023-09-30T05:47:08;12.60;99.90
11762;DHT22;5938;47.098;15.474;2023-09-30T05:51:11;12.60;99.90
11762;DHT22;5938;47.098;15.474;2023-09-30T05:55:17;12.80;99.90
11762;DHT22;5938;47.098;15.474;2023-09-30T05:59:23;12.80;99.90
11762;DHT22;5938;47.098;15.474;2023-09-30T06:03:31;12.90;99.90
11762;DHT22;5938;47.098;15.474;2023-09-30T06:07:35;13.00;99.90
11762;DHT22;5938;47.098;15.474;2023-09-30T06:11:40;13.00;99.90
11762;DHT22;5938;47.098;15.474;2023-09-30T06:15:45;13.10;99.90
11762;DHT22;5938;47.098;15.474;2023-09-30T06:19:49;13.30;99.90
11762;DHT22;5938;47.098;15.474;2023-09-30T06:23:52;13.50;99.90
11762;DHT22;5938;47.098;15.474;2023-09-30T06:27:56;13.60;99.90
11762;DHT22;5938;47.098;15.474;2023-09-30T06:32:01;13.80;99.90
11762;DHT22;5938;47.098;15.474;2023-09-30T06:36:08;13.80;99.90
11762;DHT22;5938;47.098;15.474;2023-09-30T06:40:12;13.90;99.90
11762;DHT22;5938;47.098;15.474;2023-09-30T06:44:16;14.00;99.90
11762;DHT22;5938;47.098;15.474;2023-09-30T06:48:21;14.10;99.90
11762;DHT22;5938;47.098;15.474;2023-09-30T06:52:25;14.20;99.90
11762;DHT22;5938;47.098;15.474;2023-09-30T06:56:29;14.30;99.90
11762;DHT22;5938;47.098;15.474;2023-09-30T07:00:33;14.50;99.90
11762;DHT22;5938;47.098;15.474;2023-09-30T07:04:42;14.60;99.90
11762;DHT22;5938;47.098;15.474;2023-09-30T07:08:45;14.80;99.90
11762;DHT22;5938;47.098;15.474;2023-09-30T07:12:48;15.00;99.90
11762;DHT22;5938;47.098;15.474;2023-09-30T07:16:53;15.20;99.90
11762;DHT22;5938;47.098;15.474;2023-09-30T07:20:59;15.30;99.90
11762;DHT22;5938;47.098;15.474;2023-09-30T07:25:04;15.40;99.90
11762;DHT22;5938;47.098;15.474;2023-09-30T07:29:08;15.70;99.90
11762;DHT22;5938;47.098;15.474;2023-09-30T07:33:12;15.80;99.90
11762;DHT22;5938;47.098;15.474;2023-09-30T07:37:18;16.00;99.90
11762;DHT22;5938;47.098;15.474;2023-09-30T07:41:23;16.10;99.90
11762;DHT22;5938;47.098;15.474;2023-09-30T07:45:26;16.20;99.90
11762;DHT22;5938;47.098;15.474;2023-09-30T07:49:31;16.40;99.90
11762;DHT22;5938;47.098;15.474;2023-09-30T07:53:36;16.50;99.90
11762;DHT22;5938;47.098;15.474;2023-09-30T07:57:41;16.80;99.90
11762;DHT22;5938;47.098;15.474;2023-09-30T08:01:48;17.20;99.90
11762;DHT22;5938;47.098;15.474;2023-09-30T08:05:51;17.40;99.90
11762;DHT22;5938;47.098;15.474;2023-09-30T08:09:57;17.60;99.90
11762;DHT22;5938;47.098;15.474;2023-09-30T08:14:00;18.00;99.90
11762;DHT22;5938;47.098;15.474;2023-09-30T08:18:08;18.30;99.90
11762;DHT22;5938;47.098;15.474;2023-09-30T08:22:12;18.40;99.90
11762;DHT22;5938;47.098;15.474;2023-09-30T08:26:16;18.70;99.90
11762;DHT22;5938;47.098;15.474;2023-09-30T08:30:20;18.70;99.90
11762;DHT22;5938;47.098;15.474;2023-09-30T08:34:24;19.20;99.90
11762;DHT22;5938;47.098;15.474;2023-09-30T08:38:28;19.50;99.90
11762;DHT22;5938;47.098;15.474;2023-09-30T08:42:32;20.00;99.90
11762;DHT22;5938;47.098;15.474;2023-09-30T08:46:37;20.30;99.90
11762;DHT22;5938;47.098;15.474;2023-09-30T08:50:41;20.50;99.90
11762;DHT22;5938;47.098;15.474;2023-09-30T08:54:46;20.70;99.90
11762;DHT22;5938;47.098;15.474;2023-09-30T08:58:50;20.70;99.90
11762;DHT22;5938;47.098;15.474;2023-09-30T09:02:55;20.70;99.90
11762;DHT22;5938;47.098;15.474;2023-09-30T09:06:58;20.70;99.90
11762;DHT22;5938;47.098;15.474;2023-09-30T09:11:02;21.00;99.90
11762;DHT22;5938;47.098;15.474;2023-09-30T09:15:20;21.00;99.90
11762;DHT22;5938;47.098;15.474;2023-09-30T09:19:24;21.30;99.90
11762;DHT22;5938;47.098;15.474;2023-09-30T09:23:27;21.50;99.90
11762;DHT22;5938;47.098;15.474;2023-09-30T09:27:33;21.50;99.90
11762;DHT22;5938;47.098;15.474;2023-09-30T09:31:39;21.80;99.90
11762;DHT22;5938;47.098;15.474;2023-09-30T09:35:48;22.00;99.90
11762;DHT22;5938;47.098;15.474;2023-09-30T09:39:55;22.40;99.90
11762;DHT22;5938;47.098;15.474;2023-09-30T09:43:59;22.80;99.90
11762;DHT22;5938;47.098;15.474;2023-09-30T09:48:06;22.90;99.80
11762;DHT22;5938;47.098;15.474;2023-09-30T09:52:11;23.00;99.80
11762;DHT22;5938;47.098;15.474;2023-09-30T09:56:18;23.50;99.80
11762;DHT22;5938;47.098;15.474;2023-09-30T10:00:43;23.90;98.10
11762;DHT22;5938;47.098;15.474;2023-09-30T10:04:54;24.10;96.40
11762;DHT22;5938;47.098;15.474;2023-09-30T10:08:59;23.70;96.90
11762;DHT22;5938;47.098;15.474;2023-09-30T10:13:03;23.00;96.60
11762;DHT22;5938;47.098;15.474;2023-09-30T10:17:08;22.70;96.50
11762;DHT22;5938;47.098;15.474;2023-09-30T10:21:13;22.70;96.50
11762;DHT22;5938;47.098;15.474;2023-09-30T10:25:35;22.90;96.80
11762;DHT22;5938;47.098;15.474;2023-09-30T10:29:40;22.90;96.60
11762;DHT22;5938;47.098;15.474;2023-09-30T10:34:17;23.30;96.40
11762;DHT22;5938;47.098;15.474;2023-09-30T10:38:40;23.90;94.80
11762;DHT22;5938;47.098;15.474;2023-09-30T10:42:48;26.20;92.40
11762;DHT22;5938;47.098;15.474;2023-09-30T10:46:54;28.00;88.50
11762;DHT22;5938;47.098;15.474;2023-09-30T10:50:58;29.10;85.40
11762;DHT22;5938;47.098;15.474;2023-09-30T10:55:05;30.10;79.50
11762;DHT22;5938;47.098;15.474;2023-09-30T10:59:09;31.00;77.20
11762;DHT22;5938;47.098;15.474;2023-09-30T11:03:13;32.10;72.40
11762;DHT22;5938;47.098;15.474;2023-09-30T11:07:22;33.10;70.50
11762;DHT22;5938;47.098;15.474;2023-09-30T11:11:35;33.90;65.40
11762;DHT22;5938;47.098;15.474;2023-09-30T11:15:40;34.30;64.40
11762;DHT22;5938;47.098;15.474;2023-09-30T11:19:47;34.10;65.60
11762;DHT22;5938;47.098;15.474;2023-09-30T11:23:50;34.80;64.70
11762;DHT22;5938;47.098;15.474;2023-09-30T11:28:12;35.40;62.40
11762;DHT22;5938;47.098;15.474;2023-09-30T11:32:23;35.90;60.20
11762;DHT22;5938;47.098;15.474;2023-09-30T11:36:29;35.40;59.40
11762;DHT22;5938;47.098;15.474;2023-09-30T11:40:33;35.30;59.30
11762;DHT22;5938;47.098;15.474;2023-09-30T11:44:44;35.30;60.70
11762;DHT22;5938;47.098;15.474;2023-09-30T11:48:57;35.20;60.20
11762;DHT22;5938;47.098;15.474;2023-09-30T11:53:02;35.00;59.70
11762;DHT22;5938;47.098;15.474;2023-09-30T11:57:08;34.80;58.50
11762;DHT22;5938;47.098;15.474;2023-09-30T12:01:13;35.20;60.60
11762;DHT22;5938;47.098;15.474;2023-09-30T12:05:18;36.00;57.50
11762;DHT22;5938;47.098;15.474;2023-09-30T12:09:24;35.60;56.90
11762;DHT22;5938;47.098;15.474;2023-09-30T12:13:29;34.60;61.00
11762;DHT22;5938;47.098;15.474;2023-09-30T12:17:34;32.40;64.70
11762;DHT22;5938;47.098;15.474;2023-09-30T12:21:38;30.80;68.80
11762;DHT22;5938;47.098;15.474;2023-09-30T12:25:42;29.00;73.10
11762;DHT22;5938;47.098;15.474;2023-09-30T12:29:53;29.60;73.60
11762;DHT22;5938;47.098;15.474;2023-09-30T12:34:03;30.20;73.90
11762;DHT22;5938;47.098;15.474;2023-09-30T12:38:07;30.60;71.40
11762;DHT22;5938;47.098;15.474;2023-09-30T12:42:10;32.90;65.60
11762;DHT22;5938;47.098;15.474;2023-09-30T12:46:17;32.90;66.10
11762;DHT22;5938;47.098;15.474;2023-09-30T12:50:24;33.00;65.20
11762;DHT22;5938;47.098;15.474;2023-09-30T12:54:27;33.30;65.00
11762;DHT22;5938;47.098;15.474;2023-09-30T12:58:32;33.10;64.90
11762;DHT22;5938;47.098;15.474;2023-09-30T13:02:36;32.80;63.90
11762;DHT22;5938;47.098;15.474;2023-09-30T13:06:42;32.30;64.30
11762;DHT22;5938;47.098;15.474;2023-09-30T13:10:46;34.50;62.80
11762;DHT22;5938;47.098;15.474;2023-09-30T13:14:50;36.10;62.20
11762;DHT22;5938;47.098;15.474;2023-09-30T13:18:55;34.40;60.00
11762;DHT22;5938;47.098;15.474;2023-09-30T13:23:01;35.30;60.70
11762;DHT22;5938;47.098;15.474;2023-09-30T13:27:05;34.40;60.10
11762;DHT22;5938;47.098;15.474;2023-09-30T13:31:08;35.30;58.60
11762;DHT22;5938;47.098;15.474;2023-09-30T13:35:12;34.50;60.10
11762;DHT22;5938;47.098;15.474;2023-09-30T13:39:18;35.50;59.50
11762;DHT22;5938;47.098;15.474;2023-09-30T13:43:21;36.00;61.00
11762;DHT22;5938;47.098;15.474;2023-09-30T13:47:25;36.00;59.00
11762;DHT22;5938;47.098;15.474;2023-09-30T13:51:28;35.50;58.00
11762;DHT22;5938;47.098;15.474;2023-09-30T13:55:37;35.90;58.70
11762;DHT22;5938;47.098;15.474;2023-09-30T13:59:41;36.20;58.70
11762;DHT22;5938;47.098;15.474;2023-09-30T14:03:45;35.20;60.60
11762;DHT22;5938;47.098;15.474;2023-09-30T14:07:49;35.70;59.40
11762;DHT22;5938;47.098;15.474;2023-09-30T14:11:54;35.40;58.80
11762;DHT22;5938;47.098;15.474;2023-09-30T14:15:58;35.50;60.80
11762;DHT22;5938;47.098;15.474;2023-09-30T14:20:02;34.80;61.90
11762;DHT22;5938;47.098;15.474;2023-09-30T14:24:08;34.80;61.50
11762;DHT22;5938;47.098;15.474;2023-09-30T14:28:14;32.70;65.10
11762;DHT22;5938;47.098;15.474;2023-09-30T14:32:17;30.00;70.20
11762;DHT22;5938;47.098;15.474;2023-09-30T14:36:21;28.40;78.20
11762;DHT22;5938;47.098;15.474;2023-09-30T14:40:24;27.10;84.70
11762;DHT22;5938;47.098;15.474;2023-09-30T14:44:29;26.30;84.60
11762;DHT22;5938;47.098;15.474;2023-09-30T14:48:33;26.10;90.30
11762;DHT22;5938;47.098;15.474;2023-09-30T14:52:37;25.70;90.10
11762;DHT22;5938;47.098;15.474;2023-09-30T14:56:42;25.20;90.10
11762;DHT22;5938;47.098;15.474;2023-09-30T15:00:47;24.70;92.90
11762;DHT22;5938;47.098;15.474;2023-09-30T15:04:51;24.40;92.80
11762;DHT22;5938;47.098;15.474;2023-09-30T15:08:55;24.00;94.30
11762;DHT22;5938;47.098;15.474;2023-09-30T15:12:59;23.80;94.80
11762;DHT22;5938;47.098;15.474;2023-09-30T15:17:04;23.50;95.40
11762;DHT22;5938;47.098;15.474;2023-09-30T15:21:08;23.20;95.70
11762;DHT22;5938;47.098;15.474;2023-09-30T15:25:11;22.80;96.50
11762;DHT22;5938;47.098;15.474;2023-09-30T15:29:15;22.60;97.10
11762;DHT22;5938;47.098;15.474;2023-09-30T15:33:21;22.20;97.60
11762;DHT22;5938;47.098;15.474;2023-09-30T15:37:26;22.00;99.10
11762;DHT22;5938;47.098;15.474;2023-09-30T15:41:31;21.70;99.90
11762;DHT22;5938;47.098;15.474;2023-09-30T15:45:36;21.40;99.90
11762;DHT22;5938;47.098;15.474;2023-09-30T15:49:46;21.10;99.90
11762;DHT22;5938;47.098;15.474;2023-09-30T15:53:50;20.90;99.90
11762;DHT22;5938;47.098;15.474;2023-09-30T15:57:53;20.70;99.90
11762;DHT22;5938;47.098;15.474;2023-09-30T16:01:57;20.30;99.90
11762;DHT22;5938;47.098;15.474;2023-09-30T16:06:08;20.00;99.90
11762;DHT22;5938;47.098;15.474;2023-09-30T16:10:13;19.70;99.90
11762;DHT22;5938;47.098;15.474;2023-09-30T16:14:17;19.50;99.90
11762;DHT22;5938;47.098;15.474;2023-09-30T16:18:21;19.20;99.90
11762;DHT22;5938;47.098;15.474;2023-09-30T16:22:42;18.90;99.90
11762;DHT22;5938;47.098;15.474;2023-09-30T16:26:49;18.70;99.90
11762;DHT22;5938;47.098;15.474;2023-09-30T16:30:53;18.40;99.90
11762;DHT22;5938;47.098;15.474;2023-09-30T16:34:57;18.20;99.90
11762;DHT22;5938;47.098;15.474;2023-09-30T16:39:02;18.10;99.90
11762;DHT22;5938;47.098;15.474;2023-09-30T16:43:10;17.90;99.90
11762;DHT22;5938;47.098;15.474;2023-09-30T16:47:15;17.70;99.90
11762;DHT22;5938;47.098;15.474;2023-09-30T16:51:20;17.70;99.90
11762;DHT22;5938;47.098;15.474;2023-09-30T16:55:27;17.60;99.90
11762;DHT22;5938;47.098;15.474;2023-09-30T16:59:33;17.60;99.90
11762;DHT22;5938;47.098;15.474;2023-09-30T17:03:39;17.40;99.90
11762;DHT22;5938;47.098;15.474;2023-09-30T17:07:46;17.40;99.90
11762;DHT22;5938;47.098;15.474;2023-09-30T17:11:53;17.30;99.90
11762;DHT22;5938;47.098;15.474;2023-09-30T17:15:57;17.10;99.90
11762;DHT22;5938;47.098;15.474;2023-09-30T17:20:02;17.00;99.90
11762;DHT22;5938;47.098;15.474;2023-09-30T17:24:09;16.90;99.90
11762;DHT22;5938;47.098;15.474;2023-09-30T17:28:15;16.70;99.90
11762;DHT22;5938;47.098;15.474;2023-09-30T17:32:19;16.50;99.90
11762;DHT22;5938;47.098;15.474;2023-09-30T17:36:23;16.30;99.90
11762;DHT22;5938;47.098;15.474;2023-09-30T17:40:29;16.10;99.90
11762;DHT22;5938;47.098;15.474;2023-09-30T17:44:35;16.00;99.90
11762;DHT22;5938;47.098;15.474;2023-09-30T17:48:42;15.80;99.90
11762;DHT22;5938;47.098;15.474;2023-09-30T17:52:51;15.60;99.90
11762;DHT22;5938;47.098;15.474;2023-09-30T17:57:00;15.50;99.90
11762;DHT22;5938;47.098;15.474;2023-09-30T18:01:20;15.40;99.90
11762;DHT22;5938;47.098;15.474;2023-09-30T18:05:28;15.40;99.90
11762;DHT22;5938;47.098;15.474;2023-09-30T18:09:35;15.10;99.90
11762;DHT22;5938;47.098;15.474;2023-09-30T18:13:50;15.10;99.90
11762;DHT22;5938;47.098;15.474;2023-09-30T18:18:06;14.90;99.90
11762;DHT22;5938;47.098;15.474;2023-09-30T18:22:16;14.80;99.90
11762;DHT22;5938;47.098;15.474;2023-09-30T18:26:45;14.60;99.90
11762;DHT22;5938;47.098;15.474;2023-09-30T18:30:53;14.40;99.90
11762;DHT22;5938;47.098;15.474;2023-09-30T18:35:04;14.40;99.90
11762;DHT22;5938;47.098;15.474;2023-09-30T18:39:15;14.20;99.90
11762;DHT22;5938;47.098;15.474;2023-09-30T18:43:31;14.10;99.90
11762;DHT22;5938;47.098;15.474;2023-09-30T18:47:42;14.00;99.90
11762;DHT22;5938;47.098;15.474;2023-09-30T18:51:50;14.00;99.90
11762;DHT22;5938;47.098;15.474;2023-09-30T18:56:00;13.90;99.90
11762;DHT22;5938;47.098;15.474;2023-09-30T19:00:12;13.80;99.90
11762;DHT22;5938;47.098;15.474;2023-09-30T19:04:23;13.70;99.90
11762;DHT22;5938;47.098;15.474;2023-09-30T19:08:31;13.70;99.90
11762;DHT22;5938;47.098;15.474;2023-09-30T19:12:40;13.60;99.90
11762;DHT22;5938;47.098;15.474;2023-09-30T19:16:54;13.40;99.90
11762;DHT22;5938;47.098;15.474;2023-09-30T19:21:03;13.40;99.90
11762;DHT22;5938;47.098;15.474;2023-09-30T19:25:14;13.40;99.90
11762;DHT22;5938;47.098;15.474;2023-09-30T19:29:22;13.30;99.90
11762;DHT22;5938;47.098;15.474;2023-09-30T19:33:34;13.20;99.90
11762;DHT22;5938;47.098;15.474;2023-09-30T19:37:42;13.10;99.90
11762;DHT22;5938;47.098;15.474;2023-09-30T19:41:47;13.00;99.90
11762;DHT22;5938;47.098;15.474;2023-09-30T19:45:58;12.90;99.90
11762;DHT22;5938;47.098;15.474;2023-09-30T19:50:07;12.80;99.90
11762;DHT22;5938;47.098;15.474;2023-09-30T19:54:13;12.80;99.90
11762;DHT22;5938;47.098;15.474;2023-09-30T19:58:18;12.70;99.90
11762;DHT22;5938;47.098;15.474;2023-09-30T20:02:23;12.60;99.90
11762;DHT22;5938;47.098;15.474;2023-09-30T20:06:32;12.60;99.90
11762;DHT22;5938;47.098;15.474;2023-09-30T20:10:36;12.60;99.90
11762;DHT22;5938;47.098;15.474;2023-09-30T20:14:40;12.50;99.90
11762;DHT22;5938;47.098;15.474;2023-09-30T20:18:44;12.40;99.90
11762;DHT22;5938;47.098;15.474;2023-09-30T20:22:50;12.40;99.90
11762;DHT22;5938;47.098;15.474;2023-09-30T20:26:54;12.30;99.90
11762;DHT22;5938;47.098;15.474;2023-09-30T20:31:01;12.20;99.90
11762;DHT22;5938;47.098;15.474;2023-09-30T20:35:21;12.10;99.90
11762;DHT22;5938;47.098;15.474;2023-09-30T20:39:30;12.10;99.90
11762;DHT22;5938;47.098;15.474;2023-09-30T20:43:39;12.10;99.90
11762;DHT22;5938;47.098;15.474;2023-09-30T20:47:43;12.00;99.90
11762;DHT22;5938;47.098;15.474;2023-09-30T20:51:47;12.00;99.90
11762;DHT22;5938;47.098;15.474;2023-09-30T20:55:52;11.90;99.90
11762;DHT22;5938;47.098;15.474;2023-09-30T20:59:55;11.90;99.90
11762;DHT22;5938;47.098;15.474;2023-09-30T21:03:59;11.90;99.90
11762;DHT22;5938;47.098;15.474;2023-09-30T21:08:03;11.90;99.90
11762;DHT22;5938;47.098;15.474;2023-09-30T21:12:08;11.90;99.90
11762;DHT22;5938;47.098;15.474;2023-09-30T21:16:15;11.80;99.90
11762;DHT22;5938;47.098;15.474;2023-09-30T21:20:19;11.70;99.90
11762;DHT22;5938;47.098;15.474;2023-09-30T21:24:23;11.70;99.90
11762;DHT22;5938;47.098;15.474;2023-09-30T21:28:28;11.60;99.90
11762;DHT22;5938;47.098;15.474;2023-09-30T21:32:32;11.60;99.90
11762;DHT22;5938;47.098;15.474;2023-09-30T21:36:35;11.50;99.90
11762;DHT22;5938;47.098;15.474;2023-09-30T21:40:39;11.50;99.90
11762;DHT22;5938;47.098;15.474;2023-09-30T21:44:48;11.50;99.90
11762;DHT22;5938;47.098;15.474;2023-09-30T21:48:52;11.50;99.90
11762;DHT22;5938;47.098;15.474;2023-09-30T21:52:56;11.50;99.90
11762;DHT22;5938;47.098;15.474;2023-09-30T21:57:00;11.40;99.90
11762;DHT22;5938;47.098;15.474;2023-09-30T22:01:05;11.50;99.90
11762;DHT22;5938;47.098;15.474;2023-09-30T22:05:09;11.50;99.90
11762;DHT22;5938;47.098;15.474;2023-09-30T22:09:12;11.60;99.90
11762;DHT22;5938;47.098;15.474;2023-09-30T22:13:17;11.70;99.90
11762;DHT22;5938;47.098;15.474;2023-09-30T22:17:22;11.70;99.90
11762;DHT22;5938;47.098;15.474;2023-09-30T22:21:26;11.70;99.90
11762;DHT22;5938;47.098;15.474;2023-09-30T22:25:29;11.70;99.90
11762;DHT22;5938;47.098;15.474;2023-09-30T22:29:36;11.80;99.90
11762;DHT22;5938;47.098;15.474;2023-09-30T22:33:41;11.90;99.90
11762;DHT22;5938;47.098;15.474;2023-09-30T22:37:44;11.90;99.90
11762;DHT22;5938;47.098;15.474;2023-09-30T22:41:47;12.00;99.90
11762;DHT22;5938;47.098;15.474;2023-09-30T22:45:51;11.90;99.90
11762;DHT22;5938;47.098;15.474;2023-09-30T22:49:57;12.00;99.90
11762;DHT22;5938;47.098;15.474;2023-09-30T22:54:01;12.00;99.90
11762;DHT22;5938;47.098;15.474;2023-09-30T22:58:05;11.90;99.90
11762;DHT22;5938;47.098;15.474;2023-09-30T23:02:09;11.90;99.90
11762;DHT22;5938;47.098;15.474;2023-09-30T23:06:14;11.90;99.90
11762;DHT22;5938;47.098;15.474;2023-09-30T23:10:17;11.80;99.90
11762;DHT22;5938;47.098;15.474;2023-09-30T23:14:21;11.90;99.90
11762;DHT22;5938;47.098;15.474;2023-09-30T23:18:25;11.80;99.90
11762;DHT22;5938;47.098;15.474;2023-09-30T23:22:30;11.80;99.90
11762;DHT22;5938;47.098;15.474;2023-09-30T23:26:33;11.70;99.90
11762;DHT22;5938;47.098;15.474;2023-09-30T23:30:38;11.70;99.90
11762;DHT22;5938;47.098;15.474;2023-09-30T23:34:42;11.80;99.90
11762;DHT22;5938;47.098;15.474;2023-09-30T23:38:47;11.70;99.90
11762;DHT22;5938;47.098;15.474;2023-09-30T23:42:51;11.60;99.90
11762;DHT22;5938;47.098;15.474;2023-09-30T23:46:56;11.60;99.90
11762;DHT22;5938;47.098;15.474;2023-09-30T23:51:00;11.50;99.90
11762;DHT22;5938;47.098;15.474;2023-09-30T23:55:06;11.50;99.90
11762;DHT22;5938;47.098;15.474;2023-09-30T23:59:14;11.40;99.90
